Time;durP1;ratioP1;P1;durP2;ratioP2;P2;SDS_P1;SDS_P2;PMS_P1;PMS_P2;Temp;Humidity;BMP_temperature;BMP_pressure;BME280_temperature;BME280_humidity;BME280_pressure;Samples;Min_cycle;Max_cycle;Signal;HPM_P1;HPM_P2
2021/08/15 00:00:10;;;;;;;4.28;2.90;;;25.40;47.50;;;;;;5053756;28;20044;-53
2021/08/15 00:02:38;;;;;;;3.40;3.00;;;25.40;47.50;;;;;;5051998;28;20349;-56
2021/08/15 00:05:05;;;;;;;3.30;2.80;;;25.40;47.50;;;;;;5052976;28;20024;-58
2021/08/15 00:07:30;;;;;;;4.03;3.13;;;25.40;47.50;;;;;;5052408;28;20394;-58
2021/08/15 00:09:56;;;;;;;4.68;3.35;;;25.40;47.60;;;;;;5053273;28;20475;-56
2021/08/15 00:12:22;;;;;;;3.58;2.63;;;25.40;47.60;;;;;;5052615;28;20036;-53
2021/08/15 00:14:48;;;;;;;3.72;2.70;;;25.40;47.60;;;;;;5052440;28;20107;-55
2021/08/15 00:17:13;;;;;;;4.32;2.95;;;25.40;47.60;;;;;;5052453;28;20032;-57
2021/08/15 00:19:40;;;;;;;3.13;2.65;;;25.40;47.60;;;;;;5052477;28;20025;-58
2021/08/15 00:22:06;;;;;;;3.50;2.90;;;25.40;47.60;;;;;;5050422;28;20057;-53
2021/08/15 00:24:36;;;;;;;4.05;2.95;;;25.40;47.60;;;;;;5052534;28;20025;-54
2021/08/15 00:27:02;;;;;;;3.88;2.72;;;25.40;47.70;;;;;;5051989;28;20033;-55
2021/08/15 00:29:28;;;;;;;3.33;2.67;;;25.40;47.70;;;;;;5035195;28;20052;-56
2021/08/15 00:31:53;;;;;;;4.07;2.92;;;25.40;47.80;;;;;;5051386;28;20437;-55
2021/08/15 00:34:19;;;;;;;3.95;2.85;;;25.30;47.80;;;;;;5052623;28;20439;-49
2021/08/15 00:36:45;;;;;;;3.60;2.90;;;25.30;47.80;;;;;;5051784;28;20043;-57
2021/08/15 00:39:11;;;;;;;3.42;2.80;;;25.30;47.80;;;;;;5051739;28;20120;-57
2021/08/15 00:41:36;;;;;;;3.47;2.83;;;25.30;47.80;;;;;;5052301;28;20056;-56
2021/08/15 00:44:02;;;;;;;3.08;2.55;;;25.30;47.80;;;;;;5052679;28;20040;-55
2021/08/15 00:46:29;;;;;;;3.75;2.75;;;25.30;47.90;;;;;;5051624;28;20091;-57
2021/08/15 00:48:56;;;;;;;3.63;2.80;;;25.30;47.90;;;;;;5052031;28;20044;-54
2021/08/15 00:51:22;;;;;;;3.42;2.60;;;25.30;47.90;;;;;;5049636;28;20036;-57
2021/08/15 00:53:49;;;;;;;3.67;2.75;;;25.30;47.90;;;;;;5051775;28;20359;-59
2021/08/15 00:56:15;;;;;;;4.05;2.78;;;25.30;48.60;;;;;;5051812;28;20199;-57
2021/08/15 00:58:41;;;;;;;3.30;2.60;;;25.30;48.00;;;;;;5053116;28;20484;-57
2021/08/15 01:01:08;;;;;;;3.55;2.80;;;25.30;48.00;;;;;;5052468;28;20021;-57
2021/08/15 01:03:35;;;;;;;3.25;2.55;;;25.30;48.10;;;;;;5051707;28;20025;-57
2021/08/15 01:06:02;;;;;;;4.93;3.00;;;25.30;48.10;;;;;;5051238;28;20067;-52
2021/08/15 01:08:30;;;;;;;3.13;2.20;;;25.30;48.10;;;;;;5033788;28;20029;-55
2021/08/15 01:10:56;;;;;;;2.90;2.33;;;25.20;48.10;;;;;;5051389;28;20045;-59
2021/08/15 01:13:22;;;;;;;3.45;2.55;;;25.20;48.10;;;;;;5051279;28;20474;-54
2021/08/15 01:15:48;;;;;;;3.85;2.80;;;25.20;48.10;;;;;;5051655;28;20128;-56
2021/08/15 01:18:24;;;;;;;3.30;2.35;;;25.20;48.80;;;;;;5051495;28;20039;-55
2021/08/15 01:21:08;;;;;;;2.72;2.35;;;25.20;48.20;;;;;;5051327;28;20135;-52
2021/08/15 01:23:35;;;;;;;3.70;2.38;;;25.20;48.30;;;;;;5050571;28;20075;-58
2021/08/15 01:26:02;;;;;;;3.83;2.65;;;25.20;49.00;;;;;;5048806;28;20029;-54
2021/08/15 01:28:29;;;;;;;3.47;2.60;;;25.20;48.40;;;;;;5051630;28;20021;-59
2021/08/15 01:30:54;;;;;;;4.03;2.60;;;25.20;48.40;;;;;;5051596;28;20037;-58
2021/08/15 01:33:35;;;;;;;3.83;2.30;;;25.20;48.50;;;;;;5051287;28;20063;-53
2021/08/15 01:36:02;;;;;;;3.58;2.65;;;25.20;48.40;;;;;;5050840;28;20041;-58
2021/08/15 01:38:31;;;;;;;3.33;2.88;;;25.20;49.10;;;;;;5050650;28;20044;-57
2021/08/15 01:40:58;;;;;;;3.28;2.78;;;25.10;48.40;;;;;;5051582;28;20368;-57
2021/08/15 01:43:25;;;;;;;2.55;2.13;;;25.10;48.40;;;;;;5050953;28;20374;-58
2021/08/15 01:45:57;;;;;;;4.05;2.50;;;25.10;48.40;;;;;;5032455;28;20433;-58
2021/08/15 01:48:23;;;;;;;2.63;2.17;;;25.10;48.40;;;;;;5050212;28;20033;-59
2021/08/15 01:50:49;;;;;;;4.32;2.65;;;25.10;48.50;;;;;;5047642;28;20053;-54
2021/08/15 01:53:18;;;;;;;3.67;2.63;;;25.10;49.10;;;;;;5050970;28;20022;-54
2021/08/15 01:55:44;;;;;;;4.68;3.08;;;25.10;48.50;;;;;;5050996;28;20108;-58
2021/08/15 01:58:11;;;;;;;3.38;2.90;;;25.10;48.60;;;;;;5050716;28;20040;-57
2021/08/15 02:00:38;;;;;;;2.38;2.10;;;25.10;48.60;;;;;;5051192;28;20051;-56
2021/08/15 02:03:04;;;;;;;3.15;2.40;;;25.00;48.60;;;;;;5051896;28;20036;-57
2021/08/15 02:05:31;;;;;;;3.83;2.83;;;25.10;48.70;;;;;;5050284;28;20017;-55
2021/08/15 02:07:57;;;;;;;3.05;2.50;;;25.10;48.70;;;;;;5050759;28;20352;-52
2021/08/15 02:10:27;;;;;;;3.17;2.58;;;25.00;48.70;;;;;;5050663;28;20033;-53
2021/08/15 02:12:54;;;;;;;2.85;2.38;;;25.00;48.70;;;;;;5050705;28;20029;-58
2021/08/15 02:15:20;;;;;;;2.65;2.10;;;25.00;48.70;;;;;;5050736;28;20106;-50
2021/08/15 02:17:46;;;;;;;3.55;2.20;;;25.00;48.80;;;;;;5052052;28;20151;-55
2021/08/15 02:20:17;;;;;;;3.25;2.60;;;25.00;48.80;;;;;;5051562;28;20025;-56
2021/08/15 02:22:43;;;;;;;3.13;2.40;;;25.00;48.80;;;;;;5051497;28;20116;-58
2021/08/15 02:25:14;;;;;;;3.35;2.50;;;25.00;48.80;;;;;;5051319;28;20035;-55
2021/08/15 02:27:40;;;;;;;3.17;2.63;;;25.00;48.80;;;;;;5048702;28;20036;-59
2021/08/15 02:30:10;;;;;;;3.55;2.78;;;25.00;48.80;;;;;;5051747;28;20428;-57
2021/08/15 02:32:36;;;;;;;3.15;2.70;;;25.00;48.80;;;;;;5050189;28;20033;-53
2021/08/15 02:35:04;;;;;;;3.20;2.38;;;25.00;48.90;;;;;;5051442;28;20029;-59
2021/08/15 02:37:31;;;;;;;3.05;2.50;;;25.00;48.90;;;;;;5051559;28;20033;-54
2021/08/15 02:39:59;;;;;;;3.17;2.35;;;25.00;48.90;;;;;;5051216;28;20452;-57
2021/08/15 02:42:29;;;;;;;3.15;2.60;;;25.00;49.00;;;;;;5051672;28;20093;-59
2021/08/15 02:44:55;;;;;;;3.83;2.60;;;24.90;48.90;;;;;;5051277;28;20044;-58
2021/08/15 02:47:21;;;;;;;3.28;2.53;;;24.90;48.90;;;;;;5051392;28;20490;-59
2021/08/15 02:49:47;;;;;;;2.85;2.30;;;24.90;49.60;;;;;;5051133;28;20032;-57
2021/08/15 02:52:12;;;;;;;4.40;2.42;;;24.90;49.00;;;;;;5050980;28;20040;-54
2021/08/15 02:54:38;;;;;;;3.05;2.40;;;24.90;49.00;;;;;;5051092;28;20033;-57
2021/08/15 02:57:04;;;;;;;3.17;2.58;;;24.90;49.00;;;;;;5050390;28;20449;-55
2021/08/15 02:59:31;;;;;;;3.05;1.95;;;24.90;49.00;;;;;;5034444;28;20032;-56
2021/08/15 03:01:56;;;;;;;2.75;2.17;;;24.90;49.00;;;;;;5050980;28;20044;-58
2021/08/15 03:04:22;;;;;;;3.03;2.08;;;24.90;49.10;;;;;;5051551;28;20484;-58
2021/08/15 03:06:48;;;;;;;2.92;2.58;;;24.90;49.10;;;;;;5051204;28;20345;-54
2021/08/15 03:09:14;;;;;;;2.83;2.45;;;24.90;49.10;;;;;;5051255;28;20187;-58
2021/08/15 03:11:39;;;;;;;2.95;2.15;;;24.90;49.10;;;;;;5051219;28;20063;-56
2021/08/15 03:14:05;;;;;;;2.70;2.20;;;24.80;49.10;;;;;;5053766;28;20041;-56
2021/08/15 03:16:31;;;;;;;3.15;2.30;;;24.80;49.10;;;;;;5054543;28;20041;-54
2021/08/15 03:18:57;;;;;;;3.47;2.47;;;24.80;49.10;;;;;;5054351;28;20114;-58
2021/08/15 03:21:24;;;;;;;3.50;2.20;;;24.90;49.20;;;;;;5054601;28;20033;-52
2021/08/15 03:23:50;;;;;;;3.83;2.20;;;24.80;49.20;;;;;;5054835;28;20025;-58
2021/08/15 03:26:16;;;;;;;3.72;2.42;;;24.80;49.20;;;;;;5053835;28;20028;-56
2021/08/15 03:28:43;;;;;;;3.35;2.15;;;24.80;49.20;;;;;;5052908;28;20083;-55
2021/08/15 03:31:09;;;;;;;3.40;2.65;;;24.80;49.20;;;;;;5055202;28;20044;-58
2021/08/15 03:33:34;;;;;;;2.55;2.05;;;24.80;49.20;;;;;;5054054;28;20453;-56
2021/08/15 03:36:01;;;;;;;4.18;2.50;;;24.80;49.20;;;;;;5054163;28;20032;-56
2021/08/15 03:38:27;;;;;;;3.70;2.58;;;24.80;49.20;;;;;;5052702;28;20063;-53
2021/08/15 03:40:52;;;;;;;2.47;2.05;;;24.80;49.90;;;;;;5054631;28;20353;-54
2021/08/15 03:43:18;;;;;;;3.30;2.42;;;24.80;49.30;;;;;;5054148;28;20087;-53
2021/08/15 03:45:44;;;;;;;3.42;2.30;;;24.80;49.30;;;;;;5054182;28;20380;-60
2021/08/15 03:48:10;;;;;;;3.33;2.17;;;24.80;49.30;;;;;;5054159;28;20029;-55
2021/08/15 03:50:35;;;;;;;3.47;2.70;;;24.80;49.30;;;;;;5053825;28;20037;-56
2021/08/15 03:53:01;;;;;;;3.65;2.58;;;24.80;49.40;;;;;;5053667;28;20060;-57
2021/08/15 03:55:27;;;;;;;2.88;2.22;;;24.80;49.40;;;;;;5054064;28;20028;-55
2021/08/15 03:57:53;;;;;;;3.08;2.50;;;24.80;49.40;;;;;;5053728;28;20151;-55
2021/08/15 04:00:19;;;;;;;3.40;2.28;;;24.80;49.50;;;;;;5051593;28;20388;-56
2021/08/15 04:02:44;;;;;;;3.55;2.42;;;24.80;49.40;;;;;;5036583;28;20337;-55
2021/08/15 04:05:10;;;;;;;3.45;2.58;;;24.80;49.40;;;;;;5053307;28;20326;-57
2021/08/15 04:07:36;;;;;;;2.45;2.17;;;24.70;49.40;;;;;;5053264;28;20119;-54
2021/08/15 04:10:03;;;;;;;3.53;2.65;;;24.70;49.40;;;;;;5035985;28;20111;-55
2021/08/15 04:12:30;;;;;;;3.53;2.45;;;24.70;49.40;;;;;;5053829;28;20055;-57
2021/08/15 04:14:56;;;;;;;4.45;2.70;;;24.70;49.40;;;;;;5032910;28;20052;-55
2021/08/15 04:17:21;;;;;;;2.88;2.35;;;24.70;49.50;;;;;;5053190;28;20043;-60
2021/08/15 04:19:47;;;;;;;3.30;2.72;;;24.70;49.50;;;;;;5053044;28;20040;-55
2021/08/15 04:22:13;;;;;;;4.15;2.72;;;24.70;49.50;;;;;;5053765;28;20036;-56
2021/08/15 04:24:39;;;;;;;4.47;2.67;;;24.70;49.50;;;;;;5052854;28;20036;-55
2021/08/15 04:27:05;;;;;;;4.82;2.85;;;24.70;49.50;;;;;;5053081;28;20178;-58
2021/08/15 04:29:35;;;;;;;2.90;2.45;;;24.70;49.60;;;;;;5053689;28;20029;-58
2021/08/15 04:32:04;;;;;;;2.80;2.20;;;24.70;49.60;;;;;;5053038;28;20041;-58
2021/08/15 04:34:30;;;;;;;3.25;2.55;;;24.70;49.60;;;;;;5036058;28;20021;-57
2021/08/15 04:36:56;;;;;;;3.58;2.63;;;24.70;49.60;;;;;;5052873;28;20037;-59
2021/08/15 04:39:22;;;;;;;3.55;2.17;;;24.70;49.60;;;;;;5052643;28;20029;-59
2021/08/15 04:41:47;;;;;;;2.45;1.90;;;24.70;49.70;;;;;;5053374;28;20457;-52
2021/08/15 04:44:13;;;;;;;3.05;2.47;;;24.70;49.70;;;;;;5053019;28;20502;-54
2021/08/15 04:46:39;;;;;;;3.08;2.47;;;24.70;49.70;;;;;;5053281;28;20688;-56
2021/08/15 04:49:05;;;;;;;3.55;2.58;;;24.70;49.70;;;;;;5052844;28;20056;-56
2021/08/15 04:51:31;;;;;;;2.55;2.15;;;24.70;49.70;;;;;;5051886;28;20048;-57
2021/08/15 04:53:57;;;;;;;2.90;2.20;;;24.70;49.70;;;;;;5034554;28;20514;-56
2021/08/15 04:56:22;;;;;;;2.67;1.95;;;24.70;49.80;;;;;;5051814;28;20029;-53
2021/08/15 04:58:48;;;;;;;3.05;2.67;;;24.60;49.70;;;;;;5053601;28;20108;-54
2021/08/15 05:01:15;;;;;;;3.17;2.42;;;24.60;49.80;;;;;;5053049;28;20085;-58
2021/08/15 05:03:41;;;;;;;3.88;2.75;;;24.70;49.80;;;;;;5052983;28;20112;-55
2021/08/15 05:06:07;;;;;;;3.97;2.97;;;24.70;49.90;;;;;;5050681;28;20024;-51
2021/08/15 05:08:33;;;;;;;3.17;2.25;;;24.70;49.90;;;;;;5052394;28;20029;-56
2021/08/15 05:10:59;;;;;;;3.30;2.45;;;24.70;49.90;;;;;;5052345;28;20106;-55
2021/08/15 05:13:28;;;;;;;2.63;2.28;;;24.60;49.90;;;;;;5053050;28;20083;-59
2021/08/15 05:15:55;;;;;;;3.40;2.47;;;24.60;49.90;;;;;;5051639;28;20049;-56
2021/08/15 05:18:21;;;;;;;3.10;2.58;;;24.60;49.90;;;;;;5053100;28;20132;-58
2021/08/15 05:20:46;;;;;;;2.65;2.40;;;24.60;49.90;;;;;;5052180;28;20112;-55
2021/08/15 05:23:12;;;;;;;3.00;2.50;;;24.60;49.90;;;;;;5053810;28;20017;-56
2021/08/15 05:25:39;;;;;;;2.97;2.35;;;24.60;49.90;;;;;;5053603;28;20435;-57
2021/08/15 05:28:05;;;;;;;2.42;2.22;;;24.60;49.90;;;;;;5053816;28;20028;-55
2021/08/15 05:30:34;;;;;;;3.83;2.88;;;24.60;49.90;;;;;;5054159;28;20093;-58
2021/08/15 05:33:00;;;;;;;3.17;2.47;;;24.60;49.90;;;;;;5053128;28;20064;-57
2021/08/15 05:35:26;;;;;;;3.97;2.83;;;24.60;49.90;;;;;;5054212;28;20093;-55
2021/08/15 05:37:52;;;;;;;4.10;2.53;;;24.60;49.90;;;;;;5053362;28;20033;-55
2021/08/15 05:40:18;;;;;;;3.10;2.50;;;24.60;49.90;;;;;;5054079;28;20051;-55
2021/08/15 05:42:43;;;;;;;3.97;2.70;;;24.60;50.00;;;;;;5053406;28;20021;-56
2021/08/15 05:45:10;;;;;;;3.88;2.72;;;24.60;49.90;;;;;;5053979;28;20043;-59
2021/08/15 05:47:36;;;;;;;2.90;2.38;;;24.60;49.90;;;;;;5053258;28;20025;-52
2021/08/15 05:50:04;;;;;;;3.35;2.42;;;24.60;49.90;;;;;;5053915;28;20032;-53
2021/08/15 05:52:30;;;;;;;4.32;2.45;;;24.60;49.90;;;;;;5053271;28;20037;-53
2021/08/15 05:54:56;;;;;;;3.38;2.40;;;24.60;49.90;;;;;;5054011;28;20032;-53
2021/08/15 05:57:22;;;;;;;3.58;2.65;;;24.60;49.90;;;;;;5053196;28;20143;-58
2021/08/15 05:59:48;;;;;;;3.28;2.47;;;24.60;49.90;;;;;;5053747;28;20036;-52
2021/08/15 06:02:14;;;;;;;3.83;3.10;;;24.70;50.00;;;;;;5053830;28;20036;-57
2021/08/15 06:05:02;;;;;;;3.88;2.15;;;24.60;49.90;;;;;;5053524;28;20118;-58
2021/08/15 06:07:50;;;;;;;3.17;2.70;;;24.60;49.90;;;;;;5053636;28;20047;-51
2021/08/15 06:10:15;;;;;;;3.40;2.53;;;24.60;49.90;;;;;;5053996;28;20037;-53
2021/08/15 06:12:41;;;;;;;3.67;2.95;;;24.60;49.90;;;;;;5053097;28;20037;-54
2021/08/15 06:15:27;;;;;;;3.05;2.53;;;24.70;50.00;;;;;;5053618;28;20051;-52
2021/08/15 06:17:52;;;;;;;3.13;2.47;;;24.70;50.00;;;;;;5052921;28;20500;-55
2021/08/15 06:20:18;;;;;;;3.67;2.85;;;24.60;49.90;;;;;;5053730;28;20432;-50
2021/08/15 06:23:02;;;;;;;4.25;2.53;;;24.70;50.00;;;;;;5044469;28;20098;-57
2021/08/15 06:25:28;;;;;;;4.70;3.28;;;24.70;50.00;;;;;;5051171;28;20417;-54
2021/08/15 06:28:13;;;;;;;3.95;2.88;;;24.70;50.00;;;;;;5045865;28;20094;-52
2021/08/15 06:30:38;;;;;;;3.47;2.97;;;24.70;50.00;;;;;;5050472;28;20428;-54
2021/08/15 06:33:05;;;;;;;3.08;2.42;;;24.70;50.00;;;;;;5043808;28;20094;-55
2021/08/15 06:35:31;;;;;;;4.00;2.75;;;24.70;50.00;;;;;;5053085;28;20021;-55
2021/08/15 06:37:57;;;;;;;4.05;2.88;;;24.80;50.00;;;;;;5052411;28;20467;-48
2021/08/15 06:40:30;;;;;;;3.25;2.53;;;24.80;49.90;;;;;;5051781;28;20021;-56
2021/08/15 06:43:10;;;;;;;3.95;3.03;;;24.80;49.90;;;;;;5053274;28;20028;-56
2021/08/15 06:45:37;;;;;;;3.10;2.47;;;24.90;49.80;;;;;;5046774;28;20048;-53
2021/08/15 06:48:03;;;;;;;3.88;2.67;;;24.90;49.80;;;;;;5052932;28;20108;-55
2021/08/15 06:50:30;;;;;;;3.35;2.55;;;24.90;49.80;;;;;;5055840;28;20463;-58
2021/08/15 06:52:55;;;;;;;3.38;2.70;;;24.90;49.80;;;;;;5056607;28;20309;-56
2021/08/15 06:55:21;;;;;;;4.43;2.75;;;25.00;49.80;;;;;;5055747;28;20040;-55
2021/08/15 06:57:47;;;;;;;3.78;2.83;;;25.00;49.80;;;;;;5056858;28;20108;-53
2021/08/15 07:00:14;;;;;;;3.00;2.42;;;25.00;50.40;;;;;;5055411;28;20021;-55
2021/08/15 07:02:43;;;;;;;4.15;3.05;;;25.10;49.80;;;;;;5056502;28;20118;-54
2021/08/15 07:05:10;;;;;;;3.38;2.78;;;25.10;49.70;;;;;;5056442;28;20459;-57
2021/08/15 07:07:36;;;;;;;3.25;2.55;;;25.10;49.70;;;;;;5056629;28;20044;-58
2021/08/15 07:10:04;;;;;;;4.70;2.70;;;25.20;49.80;;;;;;5055858;28;20067;-56
2021/08/15 07:12:30;;;;;;;3.38;2.55;;;25.20;49.80;;;;;;5054278;28;20060;-56
2021/08/15 07:14:56;;;;;;;3.67;2.67;;;25.20;49.70;;;;;;5055750;28;20094;-56
2021/08/15 07:17:22;;;;;;;3.67;2.80;;;25.20;49.70;;;;;;5055893;28;20056;-54
2021/08/15 07:19:47;;;;;;;4.63;2.88;;;25.30;49.80;;;;;;5056272;28;20142;-58
2021/08/15 07:22:13;;;;;;;4.25;3.17;;;25.30;49.70;;;;;;5053119;28;20033;-56
2021/08/15 07:24:39;;;;;;;3.40;2.42;;;25.30;49.70;;;;;;5055119;28;20033;-58
2021/08/15 07:27:05;;;;;;;3.67;2.65;;;25.30;49.70;;;;;;5048635;28;20108;-56
2021/08/15 07:29:31;;;;;;;3.55;2.70;;;25.30;49.70;;;;;;5050730;28;20056;-57
2021/08/15 07:31:56;;;;;;;4.28;2.70;;;25.40;49.80;;;;;;5055330;28;20516;-55
2021/08/15 07:34:22;;;;;;;3.72;2.47;;;25.30;49.60;;;;;;5056080;28;20106;-56
2021/08/15 07:36:48;;;;;;;3.55;2.50;;;25.40;49.70;;;;;;5055654;28;20066;-53
2021/08/15 07:39:14;;;;;;;3.22;2.05;;;25.40;49.60;;;;;;5055433;28;20057;-54
2021/08/15 07:41:40;;;;;;;3.17;2.20;;;25.40;49.50;;;;;;5055133;28;20021;-53
2021/08/15 07:44:26;;;;;;;3.17;2.30;;;25.40;49.40;;;;;;5054667;28;20074;-59
2021/08/15 07:47:10;;;;;;;3.47;2.45;;;25.40;49.40;;;;;;5055727;28;20051;-54
2021/08/15 07:49:55;;;;;;;;;;;25.40;49.30;;;;;;5056332;28;20044;-58
2021/08/15 07:52:39;;;;;;;2.47;2.13;;;25.40;49.20;;;;;;5043911;28;19943;-60
2021/08/15 07:55:24;;;;;;;2.47;2.15;;;25.40;49.10;;;;;;5045086;28;20087;-57
2021/08/15 07:58:09;;;;;;;;;;;25.40;49.00;;;;;;5046929;28;20106;-55
2021/08/15 08:00:53;;;;;;;3.03;2.15;;;25.40;48.90;;;;;;5054132;28;19998;-57
2021/08/15 08:03:19;;;;;;;3.30;2.25;;;25.40;48.90;;;;;;5054440;28;20032;-55
2021/08/15 08:06:04;;;;;;;5.15;2.05;;;25.50;48.70;;;;;;5055186;28;20063;-59
2021/08/15 08:08:50;;;;;;;3.90;2.25;;;25.50;48.70;;;;;;5038818;28;20360;-57
2021/08/15 08:11:16;;;;;;;3.20;2.20;;;25.50;48.70;;;;;;5054418;28;20456;-57
2021/08/15 08:13:41;;;;;;;3.35;2.30;;;25.50;48.60;;;;;;5054212;28;20094;-58
2021/08/15 08:16:07;;;;;;;2.78;2.22;;;25.50;48.50;;;;;;5053014;28;20099;-58
2021/08/15 08:18:33;;;;;;;3.22;2.13;;;25.50;48.40;;;;;;5054951;28;20433;-54
2021/08/15 08:20:59;;;;;;;3.40;2.10;;;25.60;48.40;;;;;;5054595;28;20048;-54
2021/08/15 08:23:25;;;;;;;4.07;2.38;;;25.60;48.30;;;;;;5054069;28;20029;-56
2021/08/15 08:25:51;;;;;;;3.42;2.28;;;25.60;48.20;;;;;;5053976;28;20025;-48
2021/08/15 08:28:16;;;;;;;5.72;3.65;;;25.60;48.10;;;;;;5053580;28;20037;-51
2021/08/15 08:30:42;;;;;;;10.23;6.22;;;25.60;48.20;;;;;;5053478;28;20108;-62
2021/08/15 08:33:08;;;;;;;8.10;4.90;;;25.60;48.80;;;;;;5036386;28;20052;-64
2021/08/15 08:35:34;;;;;;;7.28;3.58;;;25.70;49.20;;;;;;5035367;28;20029;-59
2021/08/15 08:38:00;;;;;;;6.95;2.90;;;25.70;48.80;;;;;;5053311;28;20083;-59
2021/08/15 08:40:26;;;;;;;4.45;2.55;;;25.70;48.80;;;;;;5053045;28;20037;-53
2021/08/15 08:42:52;;;;;;;6.47;3.30;;;25.70;48.80;;;;;;5051038;28;20033;-59
2021/08/15 08:45:21;;;;;;;7.22;4.15;;;25.70;48.80;;;;;;5052683;28;20031;-55
2021/08/15 08:47:48;;;;;;;11.73;5.78;;;25.80;49.30;;;;;;5053701;28;20537;-54
2021/08/15 08:50:14;;;;;;;10.77;6.03;;;25.80;49.50;;;;;;5053365;28;20761;-57
2021/08/15 08:52:41;;;;;;;11.32;6.15;;;25.80;49.90;;;;;;5052445;28;20063;-49
2021/08/15 08:55:08;;;;;;;10.52;6.20;;;25.90;50.20;;;;;;5054746;28;20029;-54
2021/08/15 08:57:34;;;;;;;10.63;5.30;;;25.90;51.00;;;;;;5055124;28;20035;-52
2021/08/15 09:00:00;;;;;;;8.93;4.72;;;26.00;50.40;;;;;;5054248;28;20096;-52
2021/08/15 09:02:27;;;;;;;7.85;4.60;;;26.00;50.30;;;;;;5053442;28;20171;-54
2021/08/15 09:04:52;;;;;;;8.50;4.85;;;26.00;50.10;;;;;;5034560;28;20410;-54
2021/08/15 09:07:21;;;;;;;11.23;5.30;;;26.00;50.10;;;;;;5053394;28;20029;-57
2021/08/15 09:09:53;;;;;;;10.60;5.60;;;26.10;51.10;;;;;;5052240;28;20036;-51
2021/08/15 09:12:19;;;;;;;9.90;5.90;;;26.10;50.70;;;;;;5049185;28;20045;-51
2021/08/15 09:14:45;;;;;;;11.23;6.05;;;26.10;50.90;;;;;;5053710;28;20512;-55
2021/08/15 09:17:11;;;;;;;10.93;5.57;;;26.10;51.00;;;;;;5052773;28;20108;-53
2021/08/15 09:19:38;;;;;;;12.15;5.97;;;26.20;50.90;;;;;;5052182;28;20352;-53
2021/08/15 09:22:22;;;;;;;11.70;6.50;;;26.20;50.90;;;;;;5052177;28;20033;-53
2021/08/15 09:24:53;;;;;;;13.55;7.13;;;26.20;51.20;;;;;;5050259;28;20082;-54
2021/08/15 09:27:21;;;;;;;11.68;5.50;;;26.20;51.40;;;;;;5052601;28;20044;-48
2021/08/15 09:30:09;;;;;;;9.65;5.72;;;26.30;51.60;;;;;;5053779;28;20055;-57
2021/08/15 09:32:37;;;;;;;11.10;5.43;;;26.30;51.30;;;;;;5049871;28;20041;-57
2021/08/15 09:35:04;;;;;;;13.20;6.47;;;26.30;51.20;;;;;;5051195;28;20033;-57
2021/08/15 09:37:34;;;;;;;12.25;6.20;;;26.30;51.30;;;;;;5051208;28;20029;-57
2021/08/15 09:40:00;;;;;;;11.98;6.00;;;26.30;51.50;;;;;;5051026;28;20194;-61
2021/08/15 09:42:44;;;;;;;9.77;5.10;;;26.40;51.50;;;;;;5047821;28;20432;-54
2021/08/15 09:45:16;;;;;;;7.22;4.38;;;26.40;51.00;;;;;;5047284;28;20051;-51
2021/08/15 09:47:43;;;;;;;6.70;4.18;;;26.40;50.80;;;;;;5045982;28;20032;-52
2021/08/15 09:50:23;;;;;;;5.78;3.95;;;26.40;50.50;;;;;;5051215;28;20029;-52
2021/08/15 09:52:50;;;;;;;5.55;3.67;;;26.40;50.10;;;;;;5050736;28;20154;-55
2021/08/15 09:55:17;;;;;;;4.10;2.55;;;26.40;49.90;;;;;;5051531;28;20029;-55
2021/08/15 09:57:43;;;;;;;4.53;3.22;;;26.40;49.60;;;;;;5050930;28;20027;-55
2021/08/15 10:00:30;;;;;;;4.53;2.70;;;26.40;49.30;;;;;;5051730;28;20036;-55
2021/08/15 10:02:56;;;;;;;5.38;2.85;;;26.40;49.20;;;;;;5050785;28;20111;-54
2021/08/15 10:05:23;;;;;;;4.78;2.50;;;26.40;49.20;;;;;;5050322;28;20044;-55
2021/08/15 10:07:49;;;;;;;4.20;2.60;;;26.40;49.00;;;;;;5051439;28;20032;-53
2021/08/15 10:10:18;;;;;;;4.38;2.47;;;26.40;48.80;;;;;;5048225;28;20599;-56
2021/08/15 10:12:44;;;;;;;3.70;2.22;;;26.40;48.70;;;;;;5049590;28;20044;-54
2021/08/15 10:15:12;;;;;;;4.32;2.58;;;26.40;48.50;;;;;;5050148;28;20044;-53
2021/08/15 10:17:39;;;;;;;3.45;2.60;;;26.40;48.40;;;;;;5050729;28;20440;-51
2021/08/15 10:20:09;;;;;;;2.90;2.25;;;26.40;48.30;;;;;;5050901;28;20032;-49
2021/08/15 10:22:37;;;;;;;3.17;2.20;;;26.40;48.80;;;;;;5052228;28;20071;-53
2021/08/15 10:25:07;;;;;;;2.67;2.00;;;26.40;48.10;;;;;;5054987;28;20037;-55
2021/08/15 10:27:42;;;;;;;3.53;2.08;;;26.40;47.90;;;;;;5055128;28;20483;-53
2021/08/15 10:30:20;;;;;;;4.50;2.40;;;26.50;47.90;;;;;;5053265;28;20087;-53
2021/08/15 10:32:58;;;;;;;3.50;2.00;;;26.50;47.70;;;;;;5053684;28;20144;-57
2021/08/15 10:35:26;;;;;;;5.80;2.35;;;26.50;48.30;;;;;;5054811;28;20043;-47
2021/08/15 10:37:54;;;;;;;2.92;2.00;;;26.50;47.60;;;;;;5055181;28;20052;-52
2021/08/15 10:40:38;;;;;;;4.60;2.28;;;26.50;47.60;;;;;;5054803;28;20479;-57
2021/08/15 10:45:05;;;;;;;2.45;1.67;;;26.50;46.90;;;;;;5089013;27;21916;-54
2021/08/15 10:47:30;;;;;;;2.40;1.50;;;26.50;47.20;;;;;;5063060;28;20056;-54
2021/08/15 10:50:03;;;;;;;2.03;1.30;;;26.50;47.00;;;;;;5064718;28;20429;-55
2021/08/15 10:52:43;;;;;;;2.33;1.45;;;26.50;46.60;;;;;;5068315;28;20490;-56
2021/08/15 10:55:13;;;;;;;1.88;1.30;;;26.50;46.40;;;;;;5068563;28;20033;-48
2021/08/15 10:57:43;;;;;;;2.35;1.45;;;26.50;46.30;;;;;;5067425;28;20341;-51
2021/08/15 11:00:29;;;;;;;2.35;1.60;;;26.40;46.10;;;;;;5068805;28;20120;-49
2021/08/15 11:02:59;;;;;;;1.83;1.33;;;26.40;45.90;;;;;;5063531;28;20060;-48
2021/08/15 11:05:36;;;;;;;2.05;1.42;;;26.40;46.00;;;;;;5067306;28;20039;-52
2021/08/15 11:08:02;;;;;;;2.72;1.73;;;26.30;45.90;;;;;;5089589;28;20047;-47
2021/08/15 11:11:06;;;;;;;2.22;1.48;;;26.30;46.10;;;;;;5068320;28;20032;-48
2021/08/15 11:13:33;;;;;;;2.90;1.17;;;26.30;46.00;;;;;;5061276;28;20075;-50
2021/08/15 11:16:27;;;;;;;2.72;1.40;;;26.30;46.10;;;;;;5062189;28;20025;-51
2021/08/15 11:19:08;;;;;;;2.23;1.33;;;26.30;45.90;;;;;;5056813;28;20036;-48
2021/08/15 11:22:15;;;;;;;1.42;1.20;;;26.30;45.90;;;;;;5064540;28;20044;-56
2021/08/15 11:24:44;;;;;;;2.22;1.48;;;26.30;46.00;;;;;;5055439;28;20357;-52
2021/08/15 11:27:18;;;;;;;1.60;1.33;;;26.20;46.10;;;;;;5057784;28;20059;-51
2021/08/15 11:29:46;;;;;;;2.05;1.40;;;26.20;46.30;;;;;;5061488;28;20106;-49
2021/08/15 11:32:17;;;;;;;1.73;1.15;;;26.20;46.30;;;;;;5060055;28;20377;-53
2021/08/15 11:35:12;;;;;;;1.83;1.10;;;26.20;46.30;;;;;;5066509;28;20025;-49
2021/08/15 11:37:48;;;;;;;2.03;1.42;;;26.20;46.10;;;;;;5067348;28;20049;-50
2021/08/15 11:40:16;;;;;;;1.65;1.30;;;26.10;45.90;;;;;;5067826;28;20083;-50
2021/08/15 11:43:00;;;;;;;1.50;1.05;;;26.10;45.90;;;;;;5066282;28;20337;-51
2021/08/15 11:45:33;;;;;;;1.95;1.30;;;26.10;45.90;;;;;;5066181;28;20476;-50
2021/08/15 11:48:19;;;;;;;3.15;1.23;;;26.10;46.00;;;;;;5068011;28;20040;-54
2021/08/15 11:50:54;;;;;;;2.50;1.30;;;26.10;46.00;;;;;;5064841;28;20033;-51
2021/08/15 11:53:31;;;;;;;2.10;1.50;;;26.10;46.10;;;;;;5056958;28;20146;-53
2021/08/15 11:56:12;;;;;;;2.75;1.00;;;26.10;46.20;;;;;;5054330;28;20036;-48
2021/08/15 11:58:50;;;;;;;3.22;1.10;;;26.10;46.20;;;;;;5052911;28;20048;-51
2021/08/15 12:01:17;;;;;;;1.95;1.33;;;26.10;46.30;;;;;;5053691;28;20029;-46
2021/08/15 12:04:06;;;;;;;1.98;1.17;;;26.00;46.30;;;;;;5054060;28;20445;-52
2021/08/15 12:06:38;;;;;;;1.75;1.00;;;26.10;46.50;;;;;;5053239;28;20364;-50
2021/08/15 12:09:15;;;;;;;2.80;0.90;;;26.00;46.50;;;;;;5053496;28;20031;-51
2021/08/15 12:11:41;;;;;;;1.75;1.00;;;26.00;46.70;;;;;;5053573;28;20055;-57
2021/08/15 12:14:17;;;;;;;1.55;1.10;;;26.00;46.80;;;;;;5051568;28;20122;-53
2021/08/15 12:16:56;;;;;;;2.22;1.13;;;26.10;47.00;;;;;;5053521;28;20029;-57
2021/08/15 12:19:30;;;;;;;1.67;1.17;;;26.00;47.00;;;;;;5053615;28;20032;-52
2021/08/15 12:22:00;;;;;;;4.05;1.02;;;26.10;47.10;;;;;;5052793;28;20082;-53
2021/08/15 12:24:32;;;;;;;1.20;0.80;;;26.00;47.00;;;;;;5052227;28;21616;-51
2021/08/15 12:27:05;;;;;;;3.63;1.05;;;26.00;47.20;;;;;;5051269;28;20024;-59
2021/08/15 12:29:34;;;;;;;1.60;0.90;;;26.00;47.10;;;;;;5053135;28;20029;-58
2021/08/15 12:32:12;;;;;;;1.65;1.08;;;26.00;47.10;;;;;;5051955;28;20044;-54
2021/08/15 12:34:57;;;;;;;1.13;0.70;;;26.00;47.20;;;;;;5052882;28;20040;-55
2021/08/15 12:37:39;;;;;;;1.60;1.02;;;26.00;47.20;;;;;;5052637;28;20083;-55
2021/08/15 12:40:12;;;;;;;1.58;0.80;;;26.00;47.20;;;;;;5052586;28;20051;-56
2021/08/15 12:42:41;;;;;;;2.00;1.10;;;26.00;47.30;;;;;;5051603;28;20486;-55
2021/08/15 12:45:10;;;;;;;1.88;0.82;;;26.00;47.30;;;;;;5053334;28;20029;-53
2021/08/15 12:47:40;;;;;;;1.20;0.90;;;26.00;47.40;;;;;;5052720;28;20520;-52
2021/08/15 12:50:12;;;;;;;1.05;0.80;;;26.00;47.50;;;;;;5051184;28;20036;-60
2021/08/15 12:52:50;;;;;;;1.38;0.82;;;26.00;47.50;;;;;;5050416;28;20047;-56
2021/08/15 12:55:23;;;;;;;1.40;0.80;;;26.00;47.50;;;;;;5051876;28;20029;-52
2021/08/15 12:58:04;;;;;;;0.80;0.73;;;26.00;47.50;;;;;;5041579;28;20441;-51
2021/08/15 13:00:37;;;;;;;1.00;0.75;;;26.00;47.50;;;;;;5047656;28;20124;-48